Flight Track Log - Related Links

Times and Time Zones

All times are in EST time to prevent confusion due to time zone crossing. See the DAL2082 flight status page for this flight to view local times or setup timezone preferences in your user account.

Time Position Orientation Groundspeed Altitude Reporting Facility
EST Latitude Longitude Course Direction KTS MPH feet Rate Location/Type
Sat 04:14:45 PM 40.6000 -73.8000 270° West 182 209 2,000  Level New York TRACON
Sat 04:15:45 PM 40.5833 -73.7333 108° East 263 303 4,000 2,479 Climbing New York TRACON
Sat 04:16:46 PM 40.6333 -73.6500 52° Northeast 282 325 7,000 2,870 Climbing New York TRACON
Sat 04:17:00 PM 40.6735 -74.2500 281° West  Level Estimated
Sat 04:17:40 PM 40.6833 -73.5833 45° Northeast 298 343 9,500  Level New York TRACON
Sat 04:18:00 PM 40.6843 -74.4071 285° West  Level Estimated
Sat 04:18:45 PM 40.7833 -73.5833 360° North 316 364 11,600  Level New York TRACON
Sat 04:19:00 PM 40.6949 -74.5643 270° West  Level Estimated
Sat 04:20:37 PM 40.9472 -73.6611 340° North 354 407 15,400  Level New York Center
Sat 04:21:37 PM 41.0414 -73.7258 333° Northwest 366 421 17,600 2,150 Climbing New York Center
Sat 04:22:37 PM 41.1225 -73.8119 321° Northwest 372 428 19,700 2,150 Climbing New York Center
Sat 04:23:37 PM 41.1439 -73.9453 282° West 350 403 21,900 1,950 Climbing New York Center
Sat 04:24:37 PM 41.1653 -74.0783 282° West 356 410 23,600 1,650 Climbing New York Center
Sat 04:25:37 PM 41.1781 -74.2142 277° West 363 418 25,200 1,500 Climbing New York Center
Sat 04:26:37 PM 41.1906 -74.3497 277° West 368 423 26,600 950 Climbing New York Center
Sat 04:27:37 PM 41.1864 -74.4903 268° West 380 437 27,100 800 Climbing New York Center
Sat 04:28:37 PM 41.1281 -74.6164 238° Southwest 380 437 28,200 1,250 Climbing New York Center
Sat 04:29:37 PM 41.0678 -74.7422 238° Southwest 393 452 29,600 1,450 Climbing New York Center
Sat 04:30:37 PM 41.0111 -74.8736 240° Southwest 405 466 31,100 1,300 Climbing New York Center
Sat 04:31:37 PM 40.9608 -75.0025 243° Southwest 410 472 32,200 1,250 Climbing New York Center
Sat 04:32:37 PM 40.9247 -75.1350 250° West 405 466 33,600 1,300 Climbing New York Center
Sat 04:33:37 PM 40.8947 -75.2647 253° West 400 460 34,800 800 Climbing New York Center
Sat 04:34:37 PM 40.8667 -75.4028 255° West 395 455 35,200 600 Climbing New York Center
Sat 04:35:37 PM 40.8361 -75.5406 254° West 395 455 36,000 400 Climbing New York Center
Sat 04:36:37 PM 40.8017 -75.6725 251° West 390 449 36,000  Level New York Center
Sat 04:37:37 PM 40.7708 -75.8075 253° West 390 449 36,000  Level New York Center
Sat 04:38:37 PM 40.7358 -75.9444 251° West 395 455 36,000  Level New York Center
Sat 04:39:37 PM 40.7461 -76.0878 275° West 387 445 36,000  Level New York Center
Sat 04:40:37 PM 40.7583 -76.2311 276° West 387 445 36,000  Level New York Center
Sat 04:41:37 PM 40.7764 -76.3778 279° West 392 451 36,000  Level New York Center
Sat 04:42:37 PM 40.7944 -76.5219 279° West 398 458 36,000  Level New York Center
Sat 04:43:37 PM 40.8144 -76.6664 280° West 403 464 36,000  Level New York Center
Sat 04:44:37 PM 40.8322 -76.8103 279° West 403 464 36,000  Level New York Center
Sat 04:45:37 PM 40.8497 -76.9547 279° West 403 464 36,000  Level New York Center
Sat 04:46:37 PM 40.8653 -77.0961 278° West 398 458 36,000  Level New York Center
Sat 04:47:37 PM 40.8825 -77.2406 279° West 393 452 36,000  Level New York Center
Sat 04:48:37 PM 40.9017 -77.3850 280° West 393 452 36,000  Level New York Center
Sat 04:50:19 PM 40.9283 -77.6186 279° West 400 460 36,000 -74 Level Cleveland Center
Sat 04:51:20 PM 40.9486 -77.7914 279° West 398 458 35,800 -344 Descending Cleveland Center
Sat 04:52:21 PM 40.9650 -77.9375 278° West 402 463 35,300 -639 Descending Cleveland Center
Sat 04:53:22 PM 40.9811 -78.0833 278° West 402 463 34,500 -639 Descending Cleveland Center
Sat 04:54:23 PM 40.9975 -78.2264 279° West 397 457 34,000 -246 Descending Cleveland Center
Sat 04:55:24 PM 41.0142 -78.3775 278° West 389 448 34,000 246 Level Cleveland Center
Sat 04:56:25 PM 41.0311 -78.5178 279° West 389 448 34,500 885 Climbing Cleveland Center
Sat 04:57:26 PM 41.0444 -78.6619 277° West 394 453 35,800 738 Climbing Cleveland Center
Sat 04:58:27 PM 41.0594 -78.8033 278° West 393 452 36,000 98 Climbing Cleveland Center
Sat 04:59:28 PM 41.0728 -78.9439 277° West 385 443 36,000  Level Cleveland Center
Sat 05:00:29 PM 41.0867 -79.0878 277° West 397 457 36,000 246 Level Cleveland Center
Sat 05:01:30 PM 41.1031 -79.2331 279° West 401 461 36,500 541 Climbing Cleveland Center
Sat 05:02:31 PM 41.1169 -79.3761 277° West 399 459 37,100 541 Climbing Cleveland Center
Sat 05:03:32 PM 41.1308 -79.5186 277° West 394 453 37,600 439 Climbing Cleveland Center
Sat 05:04:34 PM 41.1444 -79.6678 277° West 400 460 38,000 195 Climbing Cleveland Center
Sat 05:05:35 PM 41.1589 -79.8147 277° West 403 464 38,000  Level Cleveland Center
Sat 05:06:36 PM 41.1753 -79.9858 277° West 396 456 38,000  Level Cleveland Center
Sat 05:07:37 PM 41.1881 -80.1297 277° West 407 468 38,000  Level Cleveland Center
Sat 05:08:38 PM 41.2025 -80.2744 278° West 401 461 38,000  Level Cleveland Center
Sat 05:09:39 PM 41.2158 -80.4289 277° West 414 476 38,000  Level Cleveland Center
Sat 05:10:40 PM 41.2292 -80.5778 277° West 408 470 38,000  Level Cleveland Center
Sat 05:11:41 PM 41.2422 -80.7256 277° West 403 464 38,000  Level Cleveland Center
Sat 05:12:42 PM 41.2556 -80.8750 277° West 405 466 38,000  Level Cleveland Center
Sat 05:13:44 PM 41.2678 -81.0256 276° West 407 468 38,000  Level Cleveland Center
Sat 05:14:45 PM 41.2803 -81.1789 276° West 412 474 38,000  Level Cleveland Center
Sat 05:15:46 PM 41.2928 -81.3311 276° West 411 473 38,000  Level Cleveland Center
Sat 05:16:47 PM 41.3058 -81.4939 276° West 408 470 38,000  Level Cleveland Center
Sat 05:17:48 PM 41.3181 -81.6428 276° West 406 467 38,000  Level Cleveland Center
Sat 05:18:49 PM 41.3303 -81.7911 276° West 406 467 38,000  Level Cleveland Center
Sat 05:19:50 PM 41.3417 -81.9414 276° West 410 472 38,000  Level Cleveland Center
Sat 05:20:52 PM 41.3531 -82.0922 276° West 413 475 38,000  Level Cleveland Center
Sat 05:21:53 PM 41.3633 -82.2519 275° West 412 474 38,000  Level Cleveland Center
Sat 05:22:54 PM 41.3733 -82.4058 275° West 413 475 38,000  Level Cleveland Center
Sat 05:23:55 PM 41.3817 -82.5586 274° West 412 474 38,000  Level Cleveland Center
Sat 05:24:57 PM 41.3900 -82.7125 274° West 413 475 38,000  Level Cleveland Center
Sat 05:25:58 PM 41.3986 -82.8664 274° West 413 475 38,000  Level Cleveland Center
Sat 05:26:59 PM 41.4064 -83.0192 274° West 412 474 38,000  Level Cleveland Center
Sat 05:28:00 PM 41.4156 -83.1861 274° West 415 478 38,000  Level Cleveland Center
Sat 05:29:02 PM 41.4242 -83.3403 274° West 417 480 38,000  Level Cleveland Center
Sat 05:30:03 PM 41.4308 -83.4942 273° West 417 480 38,000  Level Cleveland Center
Sat 05:31:04 PM 41.4394 -83.6494 274° West 417 480 38,000  Level Cleveland Center
Sat 05:32:06 PM 41.4456 -83.8039 273° West 418 481 38,000  Level Cleveland Center
Sat 05:33:07 PM 41.4528 -83.9586 274° West 418 481 38,000  Level Cleveland Center
Sat 05:34:08 PM 41.4597 -84.1128 273° West 417 480 38,000  Level Cleveland Center
Sat 05:34:53 PM 41.4650 -84.2450 273° West 417 480 38,000  Level Chicago Center
Sat 05:35:54 PM 41.4714 -84.4003 273° West 419 482 38,000  Level Chicago Center
Sat 05:36:56 PM 41.4775 -84.5558 273° West 422 486 38,000  Level Chicago Center
Sat 05:37:57 PM 41.4833 -84.7108 273° West 420 483 38,000  Level Chicago Center
Sat 05:38:58 PM 41.4889 -84.8661 273° West 421 484 38,000  Level Chicago Center
Sat 05:39:59 PM 41.4950 -85.0233 273° West 423 487 38,000  Level Chicago Center
Sat 05:41:01 PM 41.5000 -85.1797 272° West 422 486 38,000  Level Chicago Center
Sat 05:42:02 PM 41.5058 -85.3389 273° West 423 487 38,000  Level Chicago Center
Sat 05:43:03 PM 41.5117 -85.4983 273° West 420 483 38,000  Level Chicago Center
Sat 05:44:04 PM 41.5153 -85.6564 272° West 419 482 38,000  Level Chicago Center
Sat 05:45:06 PM 41.5192 -85.8139 272° West 423 487 38,000  Level Chicago Center
Sat 05:46:07 PM 41.5233 -86.0028 272° West 424 488 38,000  Level Chicago Center
Sat 05:47:08 PM 41.5272 -86.1594 272° West 423 487 38,000  Level Chicago Center
Sat 05:48:10 PM 41.5303 -86.3169 272° West 423 487 38,000  Level Chicago Center
Sat 05:49:11 PM 41.5322 -86.4739 271° West 423 487 38,000  Level Chicago Center
Sat 05:50:12 PM 41.5342 -86.6314 271° West 425 489 38,000  Level Chicago Center
Sat 05:51:14 PM 41.5375 -86.8103 271° West 426 490 38,000  Level Chicago Center
Sat 05:52:15 PM 41.5386 -86.9683 271° West 427 491 38,000  Level Chicago Center
Sat 05:53:16 PM 41.5403 -87.1264 271° West 429 494 38,000  Level Chicago Center
Sat 05:54:17 PM 41.5417 -87.2864 271° West 432 497 38,000  Level Chicago Center
Sat 05:55:19 PM 41.5433 -87.4458 271° West 432 497 38,000  Level Chicago Center
Sat 05:56:20 PM 41.5433 -87.6061 270° West 433 498 38,000  Level Chicago Center
Sat 05:57:21 PM 41.5442 -87.7669 270° West 437 503 38,000  Level Chicago Center
Sat 05:58:23 PM 41.5447 -87.9267 270° West 437 503 38,000  Level Chicago Center
Sat 05:59:24 PM 41.5453 -88.1150 270° West 436 502 38,000  Level Chicago Center
Sat 06:00:27 PM 41.5456 -88.2753 270° West 441 507 38,000  Level Chicago Center
Sat 06:01:29 PM 41.5461 -88.4389 270° West 444 511 38,000  Level Chicago Center
Sat 06:02:30 PM 41.5469 -88.6003 270° West 441 507 38,000  Level Chicago Center
Sat 06:03:31 PM 41.5472 -88.7644 270° West 444 511 38,000  Level Chicago Center
Sat 06:04:33 PM 41.5478 -88.9594 270° West 441 507 38,000  Level Chicago Center
Sat 06:05:34 PM 41.5478 -89.1233 270° West 443 510 38,000  Level Chicago Center
Sat 06:06:35 PM 41.5464 -89.2875 269° West 443 510 38,000  Level Chicago Center
Sat 06:07:37 PM 41.5478 -89.4519 271° West 445 512 38,000  Level Chicago Center
Sat 06:08:38 PM 41.5461 -89.6244 269° West 445 512 38,000  Level Chicago Center
Sat 06:09:39 PM 41.5461 -89.7892 270° West 445 512 38,000  Level Chicago Center
Sat 06:10:41 PM 41.5450 -89.9531 270° West 445 512 38,000  Level Chicago Center
Sat 06:11:42 PM 41.5436 -90.1178 269° West 445 512 38,000  Level Chicago Center
Sat 06:12:43 PM 41.5408 -90.2847 269° West 453 521 38,000  Level Chicago Center
Sat 06:13:45 PM 41.5392 -90.4522 269° West 455 524 38,000  Level Chicago Center
Sat 06:14:46 PM 41.5367 -90.6414 269° West 446 513 38,000  Level Chicago Center
Sat 06:15:47 PM 41.5339 -90.8078 269° West 450 518 38,000  Level Chicago Center
Sat 06:16:48 PM 41.5319 -90.9728 269° West 447 514 38,000  Level Chicago Center
Sat 06:17:50 PM 41.5283 -91.1389 268° West 449 517 38,000  Level Chicago Center
Sat 06:18:51 PM 41.5250 -91.3053 269° West 451 519 38,000  Level Chicago Center
Sat 06:19:52 PM 41.5222 -91.4714 269° West 450 518 38,000  Level Chicago Center
Sat 06:20:54 PM 41.5169 -91.6369 268° West 448 516 38,000  Level Chicago Center
Sat 06:21:55 PM 41.4975 -91.8378 263° West 455 524 38,000  Level Chicago Center
Sat 06:22:56 PM 41.4811 -92.0061 263° West 457 526 38,000  Level Chicago Center
Sat 06:23:58 PM 41.4661 -92.1747 263° West 459 528 38,000  Level Chicago Center
Sat 06:24:59 PM 41.4492 -92.3422 262° West 459 528 38,000  Level Chicago Center
Sat 06:26:00 PM 41.4331 -92.4989 262° West 462 532 38,000  Level Chicago Center
Sat 06:26:41 PM 41.4192 -92.6339 262° West 461 531 38,000  Level Minneapolis Center
Sat 06:27:42 PM 41.4017 -92.8008 262° West 461 531 38,000  Level Minneapolis Center
Sat 06:28:43 PM 41.3844 -92.9689 262° West 461 531 38,000  Level Minneapolis Center
Sat 06:29:45 PM 41.3669 -93.1369 262° West 463 533 38,000 49 Level Minneapolis Center
Sat 06:30:46 PM 41.3481 -93.3061 262° West 465 535 38,100 443 Climbing Minneapolis Center
Sat 06:31:47 PM 41.3264 -93.5078 262° West 464 534 38,900 639 Climbing Minneapolis Center
Sat 06:32:48 PM 41.3100 -93.6717 262° West 456 525 39,400 390 Climbing Minneapolis Center
Sat 06:33:50 PM 41.2906 -93.8400 261° West 461 531 39,700 293 Climbing Minneapolis Center
Sat 06:34:51 PM 41.2714 -94.0075 261° West 462 532 40,000 148 Climbing Minneapolis Center
Sat 06:35:52 PM 41.2533 -94.1742 262° West 461 531 40,000  Level Minneapolis Center
Sat 06:36:53 PM 41.2339 -94.3336 261° West 462 532 40,000  Level Minneapolis Center
Sat 06:37:55 PM 41.2103 -94.5344 261° West 460 529 40,000  Level Minneapolis Center
Sat 06:38:56 PM 41.1906 -94.7008 261° West 457 526 40,000  Level Minneapolis Center
Sat 06:39:57 PM 41.1703 -94.8678 261° West 457 526 40,000  Level Minneapolis Center
Sat 06:40:58 PM 41.1492 -95.0325 260° West 454 522 40,000  Level Minneapolis Center
Sat 06:42:00 PM 41.1283 -95.1972 261° West 452 520 40,000  Level Minneapolis Center
Sat 06:43:01 PM 41.1081 -95.3603 261° West 451 519 40,000  Level Minneapolis Center
Sat 06:44:02 PM 41.0864 -95.5256 260° West 451 519 40,000  Level Minneapolis Center
Sat 06:45:04 PM 41.0647 -95.6928 260° West 455 524 40,000  Level Minneapolis Center
Sat 06:46:05 PM 41.0433 -95.8581 260° West 452 520 40,000  Level Minneapolis Center
Sat 06:47:06 PM 41.0222 -96.0233 260° West 451 519 40,000  Level Minneapolis Center
Sat 06:48:08 PM 40.9992 -96.1886 260° West 451 519 40,000  Level Minneapolis Center
Sat 06:49:09 PM 40.9775 -96.3533 260° West 452 520 40,000  Level Minneapolis Center
Sat 06:50:10 PM 40.9556 -96.5197 260° West 455 524 40,000  Level Minneapolis Center
Sat 06:51:11 PM 40.9325 -96.6844 260° West 455 524 40,000  Level Minneapolis Center
Sat 06:52:13 PM 40.9100 -96.8814 261° West 453 521 40,000  Level Minneapolis Center
Sat 06:53:14 PM 40.8956 -97.0453 263° West 450 518 40,000  Level Minneapolis Center
Sat 06:54:15 PM 40.8792 -97.2094 263° West 450 518 40,000  Level Minneapolis Center
Sat 06:55:17 PM 40.8628 -97.3736 263° West 451 519 40,000  Level Minneapolis Center
Sat 06:56:18 PM 40.8472 -97.5281 262° West 454 522 40,000  Level Minneapolis Center
Sat 06:57:19 PM 40.8317 -97.6947 263° West 456 525 40,000  Level Minneapolis Center
Sat 06:58:20 PM 40.8100 -97.8939 262° West 456 525 40,000  Level Minneapolis Center
Sat 06:59:22 PM 40.7925 -98.0583 262° West 453 521 40,000  Level Minneapolis Center
Sat 07:00:23 PM 40.7761 -98.2208 262° West 448 516 40,000  Level Minneapolis Center
Sat 07:01:25 PM 40.7583 -98.3817 262° West 443 510 40,000  Level Minneapolis Center
Sat 07:02:26 PM 40.7408 -98.5436 262° West 442 509 40,000  Level Minneapolis Center
Sat 07:03:27 PM 40.7225 -98.7053 262° West 442 509 40,000  Level Minneapolis Center
Sat 07:04:29 PM 40.7050 -98.8675 262° West 443 510 40,000  Level Minneapolis Center
Sat 07:05:30 PM 40.6864 -99.0281 261° West 442 509 40,000  Level Minneapolis Center
Sat 07:06:31 PM 40.6683 -99.1894 262° West 441 507 40,000  Level Minneapolis Center
Sat 07:07:13 PM 40.6564 -99.2858 261° West 442 509 40,000  Level Denver Center
Sat 07:08:15 PM 40.6383 -99.4453 262° West 439 505 40,000  Level Denver Center
Sat 07:09:28 PM 40.6150 -99.6394 261° West 444 511 40,000  Level Denver Center
Sat 07:10:30 PM 40.5911 -99.8339 261° West 447 514 40,000  Level Denver Center
Sat 07:11:31 PM 40.5714 -100.0014 261° West 453 521 40,000  Level Denver Center
Sat 07:12:33 PM 40.5519 -100.1569 261° West 450 518 40,000  Level Denver Center
Sat 07:13:34 PM 40.5292 -100.3392 261° West 450 518 40,000  Level Denver Center
Sat 07:14:36 PM 40.5086 -100.4975 260° West 454 522 40,000  Level Denver Center
Sat 07:15:37 PM 40.4883 -100.6578 261° West 459 528 40,000  Level Denver Center
Sat 07:16:39 PM 40.4631 -100.8444 260° West 461 531 40,000  Level Denver Center
Sat 07:17:40 PM 40.4436 -101.0067 261° West 466 536 40,000  Level Denver Center
Sat 07:18:41 PM 40.4200 -101.1669 259° West 466 536 40,000  Level Denver Center
Sat 07:19:43 PM 40.3956 -101.3547 260° West 466 536 40,000  Level Denver Center
Sat 07:20:44 PM 40.3728 -101.5142 259° West 465 535 40,000  Level Denver Center
Sat 07:21:46 PM 40.3461 -101.7028 260° West 471 542 40,000  Level Denver Center
Sat 07:22:47 PM 40.3242 -101.8642 260° West 471 542 40,000  Level Denver Center
Sat 07:23:49 PM 40.3011 -102.0233 259° West 467 537 40,000  Level Denver Center
Sat 07:24:50 PM 40.2739 -102.2106 259° West 468 539 40,000  Level Denver Center
Sat 07:25:51 PM 40.2506 -102.3717 259° West 469 540 40,000  Level Denver Center
Sat 07:27:05 PM 40.2256 -102.5314 258° West 468 539 40,000  Level Denver Center
Sat 07:28:06 PM 40.1947 -102.7464 259° West 470 541 40,000  Level Denver Center
Sat 07:29:08 PM 40.1697 -102.9119 259° West 466 536 40,000  Level Denver Center
Sat 07:30:09 PM 40.1425 -103.0769 258° West 465 535 40,000  Level Denver Center
Sat 07:31:10 PM 40.1172 -103.2400 259° West 461 531 40,000  Level Denver Center
Sat 07:32:12 PM 40.0928 -103.4014 259° West 457 526 40,000  Level Denver Center
Sat 07:33:13 PM 40.0631 -103.5928 259° West 452 520 40,000 -293 Level Denver Center
Sat 07:34:15 PM 40.0375 -103.7486 258° West 444 511 39,400 -976 Descending Denver Center
Sat 07:35:16 PM 40.0111 -103.9114 258° West 455 524 38,000 -689 Descending Denver Center
Sat 07:36:17 PM 39.9844 -104.0783 258° West 470 541 38,000  Level Denver Center
Sat 07:37:19 PM 39.9572 -104.2436 258° West 471 542 38,000  Level Denver Center
Sat 07:38:20 PM 39.9308 -104.4036 258° West 460 529 38,000  Level Denver Center
Sat 07:39:21 PM 39.9039 -104.5636 258° West 458 527 38,000  Level Denver Center
Sat 07:40:23 PM 39.8703 -104.7525 257° West 454 522 38,000  Level Denver Center
Sat 07:41:24 PM 39.8394 -104.9103 256° West 456 525 38,000 -49 Level Denver Center
Sat 07:42:25 PM 39.8083 -105.0683 256° West 458 527 37,900 -1,180 Descending Denver Center
Sat 07:43:26 PM 39.7778 -105.2300 256° West 463 533 35,600 -1,902 Descending Denver Center
Sat 07:44:28 PM 39.7422 -105.3917 254° West 468 539 34,000 -780 Descending Denver Center
Sat 07:45:29 PM 39.6922 -105.5469 247° West 468 539 34,000  Level Denver Center
Sat 07:46:30 PM 39.6228 -105.6878 237° Southwest 465 535 34,000  Level Denver Center
Sat 07:47:32 PM 39.5433 -105.8586 239° Southwest 464 534 34,000  Level Denver Center
Sat 07:48:33 PM 39.4775 -106.0017 239° Southwest 462 532 34,000  Level Denver Center
Sat 07:49:34 PM 39.4164 -106.1483 242° Southwest 465 535 34,000  Level Denver Center
Sat 07:50:36 PM 39.3681 -106.3125 249° West 460 529 34,000  Level Denver Center
Sat 07:51:37 PM 39.3214 -106.4594 248° West 459 528 34,000  Level Denver Center
Sat 07:52:38 PM 39.2731 -106.6092 247° West 467 537 34,000  Level Denver Center
Sat 07:53:40 PM 39.2172 -106.7853 248° West 474 545 34,000  Level Denver Center
Sat 07:54:41 PM 39.1667 -106.9389 247° West 482 555 34,000  Level Denver Center
Sat 07:55:42 PM 39.1100 -107.1136 247° West 476 548 34,000 -439 Level Denver Center
Sat 07:56:44 PM 39.0636 -107.2617 248° West 469 540 33,100 -878 Descending Denver Center
Sat 07:57:45 PM 39.0144 -107.4117 247° West 471 542 32,200 -541 Descending Denver Center
Sat 07:58:46 PM 38.9594 -107.5817 247° West 462 532 32,000 -98 Descending Denver Center
Sat 07:59:48 PM 38.9117 -107.7278 247° West 462 532 32,000  Level Denver Center
Sat 08:00:49 PM 38.8617 -107.8781 247° West 471 542 32,000  Level Denver Center
Sat 08:01:50 PM 38.8128 -108.0281 247° West 474 545 32,000  Level Denver Center
Sat 08:02:52 PM 38.7553 -108.2003 247° West 470 541 32,000  Level Denver Center
Sat 08:03:53 PM 38.6975 -108.3706 247° West 466 536 32,000  Level Denver Center
Sat 08:04:54 PM 38.6486 -108.5158 247° West 464 534 32,000  Level Denver Center
Sat 08:05:56 PM 38.6000 -108.6608 247° West 462 532 32,000  Level Denver Center
Sat 08:06:57 PM 38.5422 -108.8281 246° West 461 531 32,000  Level Denver Center
Sat 08:07:58 PM 38.4928 -108.9736 247° West 464 534 32,000  Level Denver Center
Sat 08:08:59 PM 38.4431 -109.1186 246° West 465 535 32,000  Level Denver Center
Sat 08:10:00 PM 38.3847 -109.2900 247° West 471 542 32,000  Level Denver Center
Sat 08:11:02 PM 38.3339 -109.4322 246° West 465 535 32,000  Level Denver Center
Sat 08:12:03 PM 38.2825 -109.5753 245° Southwest 460 529 32,000  Level Denver Center
Sat 08:13:04 PM 38.2236 -109.7439 246° West 465 535 32,000  Level Denver Center
Sat 08:14:05 PM 38.1728 -109.8883 246° West 468 539 32,000  Level Denver Center
Sat 08:15:06 PM 38.1125 -110.0558 245° Southwest 467 537 32,000  Level Denver Center
Sat 08:16:08 PM 38.0608 -110.1997 246° West 466 536 32,000  Level Denver Center
Sat 08:17:09 PM 38.0089 -110.3444 246° West 467 537 32,000  Level Denver Center
Sat 08:18:10 PM 37.9497 -110.5072 245° Southwest 458 527 32,000  Level Denver Center
Sat 08:19:11 PM 37.9028 -110.6350 245° Southwest 456 525 32,000  Level Denver Center
Sat 08:20:13 PM 37.8514 -110.7792 246° West 451 519 32,000  Level Denver Center
Sat 08:21:14 PM 37.7875 -110.9489 245° Southwest 446 513 32,000  Level Denver Center
Sat 08:22:15 PM 37.7364 -111.0911 246° West 445 512 32,000  Level Denver Center
Sat 08:23:16 PM 37.6847 -111.2319 245° Southwest 443 510 32,000  Level Denver Center
Sat 08:24:18 PM 37.6328 -111.3731 245° Southwest 443 510 32,000  Level Denver Center
Sat 08:25:19 PM 37.5789 -111.5167 245° Southwest 449 517 32,000  Level Denver Center
Sat 08:26:20 PM 37.5256 -111.6592 245° Southwest 450 518 32,000  Level Denver Center
Sat 08:27:22 PM 37.4714 -111.8022 245° Southwest 452 520 32,000  Level Denver Center
Sat 08:27:56 PM 37.4375 -111.8892 244° Southwest 452 520 32,000  Level Salt Lake Center
Sat 08:28:57 PM 37.3831 -112.0317 244° Southwest 452 520 32,000  Level Salt Lake Center
Sat 08:29:58 PM 37.3292 -112.1750 245° Southwest 452 520 32,000 -639 Level Salt Lake Center
Sat 08:30:59 PM 37.2750 -112.3175 245° Southwest 452 520 30,700 -1,377 Descending Salt Lake Center
Sat 08:32:00 PM 37.2186 -112.4617 244° Southwest 455 524 29,200 -1,328 Descending Salt Lake Center
Sat 08:33:01 PM 37.1631 -112.6061 244° Southwest 456 525 28,000 -590 Descending Salt Lake Center
Sat 08:34:02 PM 37.1058 -112.7497 243° Southwest 457 526 28,000  Level Salt Lake Center
Sat 08:35:03 PM 37.0500 -112.8947 244° Southwest 459 528 28,000  Level Salt Lake Center
Sat 08:35:33 PM 37.0164 -112.9797 244° Southwest 456 525 28,000  Level Los Angeles Center
Sat 08:36:34 PM 36.9597 -113.1222 244° Southwest 457 526 28,000  Level Los Angeles Center
Sat 08:37:48 PM 36.9033 -113.2628 243° Southwest 453 521 28,000 -622 Level Los Angeles Center
Sat 08:38:49 PM 36.8361 -113.4344 244° Southwest 456 525 26,600 -1,268 Descending Los Angeles Center
Sat 08:39:51 PM 36.7794 -113.5781 244° Southwest 461 531 25,400 -1,161 Descending Los Angeles Center
Sat 08:40:53 PM 36.7225 -113.7203 243° Southwest 459 528 24,200 -1,707 Descending Los Angeles Center
Sat 08:41:54 PM 36.6672 -113.8586 244° Southwest 450 518 21,900 -2,829 Descending Los Angeles Center
Sat 08:42:56 PM 36.6017 -114.0189 243° Southwest 436 502 18,400 -2,887 Descending Los Angeles Center
Sat 08:44:07 PM 36.5422 -114.1558 242° Southwest 429 494 15,500 -2,636 Descending Los Angeles Center
Sat 08:45:08 PM 36.4833 -114.2889 241° Southwest 410 472 12,600 -1,721 Descending Los Angeles Center
Sat 08:46:09 PM 36.4294 -114.4064 240° Southwest 352 405 12,000 -563 Descending Los Angeles Center
Sat 08:46:12 PM 36.4375 -114.3867 63° Northeast 379 436 12,000 -800 Level Los Angeles Center
Sat 08:47:09 PM 36.3689 -114.4753 226° Southwest 308 354 11,200 -774 Descending Los Angeles Center
Sat 08:47:14 PM 36.3664 -114.4742 160° South 307 353 11,200 -1,182 Level Los Angeles Center
Sat 08:48:15 PM 36.2878 -114.5156 203° Southwest 304 350 9,900 -1,220 Descending Los Angeles Center
Sat 08:49:17 PM 36.2169 -114.5681 211° Southwest 299 344 8,700 -927 Descending Los Angeles Center
Sat 08:50:18 PM 36.1581 -114.6350 223° Southwest 293 337 8,000 -293 Descending Los Angeles Center
Sat 08:51:20 PM 36.0989 -114.7008 222° Southwest 286 329 8,100 -470 Climbing Los Angeles Center
Sat 08:52:13 PM 36.0736 -114.7911 251° West 277 319 7,100 -885 Descending Los Angeles Center
Sat 08:52:21 PM 36.0725 -114.7883 116° Southeast 287 330 7,200 -982 Climbing Los Angeles Center
Sat 08:53:08 PM 36.0717 -114.8717 269° West 273 314 6,200 -1,548 Descending Los Angeles Center
Sat 08:53:23 PM 36.0733 -114.8997 274° West 279 321 5,600 -1,574 Descending Los Angeles Center
Sat 08:54:09 PM 36.0733 -114.9669 270° West 239 275 4,600 -1,180 Descending Los Angeles Center
Sat 08:54:24 PM 36.0736 -114.9836 271° West 243 280 4,400 -1,100 Descending Los Angeles Center
Sat 08:55:09 PM 36.0733 -115.0361 270° West 199 229 3,500 -1,065 Descending Los Angeles Center
Sat 08:55:26 PM 36.0736 -115.0511 271° West 204 235 3,300 -787 Descending Los Angeles Center
Sat 08:56:10 PM 36.0739 -115.0892 271° West 145 167 2,700 -787 Descending Los Angeles Center
Sat 08:56:27 PM 36.0733 -115.1042 267° West 145 167 2,500 -706 Descending Los Angeles Center

Login

Don't have an account? Register now (free) for customized features, flight alerts, and more!